Time;durP1;ratioP1;P1;durP2;ratioP2;P2;SDS_P1;SDS_P2;PMS_P1;PMS_P2;Temp;Humidity;BMP_temperature;BMP_pressure;BME280_temperature;BME280_humidity;BME280_pressure;Samples;Min_cycle;Max_cycle;Signal;HPM_P1;HPM_P2
2023/08/20 00:00:06;;;;;;;5.60;4.23;;;;;;;;;;5099798;28;20526;-57
2023/08/20 00:02:37;;;;;;;9.00;4.80;;;;;;;;;;5097659;28;20759;-57
2023/08/20 00:05:05;;;;;;;8.60;4.03;;;;;;;;;;5100858;28;20544;-57
2023/08/20 00:07:32;;;;;;;13.27;3.57;;;;;;;;;;5096635;27;20440;-56
2023/08/20 00:10:00;;;;;;;5.20;3.73;;;;;;;;;;5102752;28;20432;-56
2023/08/20 00:12:27;;;;;;;5.43;4.43;;;;;;;;;;5103003;28;20767;-58
2023/08/20 00:14:56;;;;;;;10.90;4.10;;;;;;;;;;5097227;28;20455;-56
2023/08/20 00:17:26;;;;;;;8.57;4.00;;;;;;;;;;5101427;28;20447;-57
2023/08/20 00:19:56;;;;;;;6.33;4.37;;;;;;;;;;5099156;28;20440;-57
2023/08/20 00:22:24;;;;;;;8.17;5.33;;;;;;;;;;5102903;27;20497;-58
2023/08/20 00:24:52;;;;;;;5.00;3.23;;;;;;;;;;5102067;28;20459;-57
2023/08/20 00:27:19;;;;;;;6.70;4.40;;;;;;;;;;5094246;28;20527;-57
2023/08/20 00:29:47;;;;;;;4.60;3.80;;;;;;;;;;5096356;28;20505;-58
2023/08/20 00:32:14;;;;;;;8.93;4.60;;;;;;;;;;5098030;28;20500;-58
2023/08/20 00:34:41;;;;;;;4.50;3.70;;;;;;;;;;5096102;28;20475;-58
2023/08/20 00:37:10;;;;;;;6.10;4.37;;;;;;;;;;5109755;28;20472;-57
2023/08/20 00:39:37;;;;;;;5.90;4.10;;;;;;;;;;5101943;28;20885;-55
2023/08/20 00:42:05;;;;;;;6.03;3.60;;;;;;;;;;5112916;27;20509;-56
2023/08/20 00:44:32;;;;;;;4.90;3.87;;;;;;;;;;5112051;28;20484;-58
2023/08/20 00:47:01;;;;;;;9.43;4.03;;;;;;;;;;5104302;28;20798;-56
2023/08/20 00:49:28;;;;;;;5.07;3.90;;;;;;;;;;5104209;28;20526;-56
2023/08/20 00:51:55;;;;;;;6.90;4.40;;;;;;;;;;5112478;28;20525;-56
2023/08/20 00:54:24;;;;;;;4.80;4.00;;;;;;;;;;5097317;28;20513;-57
2023/08/20 00:56:51;;;;;;;7.00;4.10;;;;;;;;;;5110638;28;20874;-57
2023/08/20 00:59:19;;;;;;;7.10;4.63;;;;;;;;;;5110802;28;20443;-57
2023/08/20 01:01:46;;;;;;;5.53;4.50;;;;;;;;;;5093029;28;20473;-57
2023/08/20 01:04:13;;;;;;;11.90;4.70;;;;;;;;;;5106683;28;20951;-57
2023/08/20 01:06:46;;;;;;;6.60;3.90;;;;;;;;;;5091461;28;21030;-57
2023/08/20 01:09:19;;;;;;;7.37;4.50;;;;;;;;;;5108304;28;20435;-57
2023/08/20 01:11:51;;;;;;;7.30;4.10;;;;;;;;;;5110890;28;20523;-58
2023/08/20 01:14:19;;;;;;;4.83;3.97;;;;;;;;;;5109320;28;20450;-57
2023/08/20 01:16:48;;;;;;;7.47;4.07;;;;;;;;;;5097287;28;20473;-56
2023/08/20 01:19:17;;;;;;;7.27;4.80;;;;;;;;;;5102354;28;20448;-56
2023/08/20 01:21:49;;;;;;;7.50;4.17;;;;;;;;;;5105921;28;20470;-55
2023/08/20 01:24:23;;;;;;;6.50;4.10;;;;;;;;;;5110106;28;20512;-57
2023/08/20 01:27:09;;;;;;;6.60;4.10;;;;;;;;;;5094024;28;20439;-56
2023/08/20 01:29:37;;;;;;;10.00;5.33;;;;;;;;;;5104199;28;20440;-57
2023/08/20 01:32:05;;;;;;;5.77;4.30;;;;;;;;;;5099686;28;20442;-56
2023/08/20 01:34:33;;;;;;;9.73;4.40;;;;;;;;;;5102999;28;20912;-57
2023/08/20 01:37:00;;;;;;;7.03;4.30;;;;;;;;;;5112235;28;20467;-56
2023/08/20 01:39:27;;;;;;;5.70;4.03;;;;;;;;;;5112094;28;20473;-55
2023/08/20 01:41:55;;;;;;;6.87;4.13;;;;;;;;;;5104959;27;20508;-57
2023/08/20 01:44:22;;;;;;;5.10;3.60;;;;;;;;;;5100308;28;20463;-56
2023/08/20 01:46:50;;;;;;;9.63;4.90;;;;;;;;;;5105748;28;21031;-57
2023/08/20 01:49:18;;;;;;;6.10;3.70;;;;;;;;;;5100668;28;20511;-56
2023/08/20 01:51:45;;;;;;;8.80;4.03;;;;;;;;;;5102286;28;20451;-58
2023/08/20 01:54:13;;;;;;;6.20;3.93;;;;;;;;;;5105521;28;20976;-56
2023/08/20 01:56:40;;;;;;;6.93;4.37;;;;;;;;;;5109942;28;20496;-58
2023/08/20 01:59:07;;;;;;;5.07;3.83;;;;;;;;;;5110313;28;20509;-57
2023/08/20 02:01:35;;;;;;;6.87;5.03;;;;;;;;;;5105514;27;20455;-56
2023/08/20 02:04:04;;;;;;;7.17;5.03;;;;;;;;;;5089222;28;20482;-56
2023/08/20 02:06:31;;;;;;;8.80;4.67;;;;;;;;;;5095166;28;20516;-56
2023/08/20 02:08:58;;;;;;;5.80;4.20;;;;;;;;;;5095904;28;20469;-57
2023/08/20 02:11:25;;;;;;;6.50;4.63;;;;;;;;;;5109645;28;20434;-56
2023/08/20 02:13:53;;;;;;;6.13;4.70;;;;;;;;;;5102344;28;20802;-56
2023/08/20 02:16:20;;;;;;;5.93;4.23;;;;;;;;;;5094540;28;20525;-57
2023/08/20 02:18:47;;;;;;;7.50;4.07;;;;;;;;;;5110062;28;20446;-57
2023/08/20 02:21:16;;;;;;;6.70;3.37;;;;;;;;;;5090544;28;20444;-57
2023/08/20 02:23:43;;;;;;;6.17;4.27;;;;;;;;;;5100496;28;20507;-56
2023/08/20 02:26:11;;;;;;;4.60;4.00;;;;;;;;;;5089177;28;20475;-57
2023/08/20 02:28:39;;;;;;;6.97;4.30;;;;;;;;;;5089390;28;20435;-57
2023/08/20 02:31:06;;;;;;;10.10;4.27;;;;;;;;;;5088982;28;20513;-57
2023/08/20 02:33:33;;;;;;;5.73;4.50;;;;;;;;;;5122434;22;20467;-53
2023/08/20 02:36:03;;;;;;;6.83;4.20;;;;;;;;;;5050213;28;20602;-53
2023/08/20 02:38:32;;;;;;;7.93;4.30;;;;;;;;;;5038355;28;20473;-53
2023/08/20 02:40:59;;;;;;;6.57;4.23;;;;;;;;;;5029177;28;20547;-53
2023/08/20 02:43:26;;;;;;;5.50;4.10;;;;;;;;;;5046021;28;20493;-54
2023/08/20 02:45:53;;;;;;;7.13;3.90;;;;;;;;;;5048424;28;20473;-55
2023/08/20 02:48:21;;;;;;;6.37;4.57;;;;;;;;;;5048530;28;20530;-53
2023/08/20 02:50:48;;;;;;;5.43;4.07;;;;;;;;;;5049212;28;20442;-53
2023/08/20 02:53:15;;;;;;;8.40;5.03;;;;;;;;;;5048561;28;20567;-55
2023/08/20 02:55:44;;;;;;;7.10;4.23;;;;;;;;;;5048817;28;20446;-54
2023/08/20 02:58:11;;;;;;;8.23;4.67;;;;;;;;;;5050661;28;20850;-53
2023/08/20 03:00:38;;;;;;;7.73;4.60;;;;;;;;;;5052338;28;20433;-53
2023/08/20 03:03:08;;;;;;;9.50;3.70;;;;;;;;;;5052940;28;20534;-55
2023/08/20 03:05:35;;;;;;;8.93;4.27;;;;;;;;;;5049136;28;20493;-53
2023/08/20 03:08:03;;;;;;;8.77;4.57;;;;;;;;;;5045116;28;20735;-56
2023/08/20 03:10:30;;;;;;;6.50;3.70;;;;;;;;;;5032771;28;20499;-55
2023/08/20 03:12:59;;;;;;;5.37;4.00;;;;;;;;;;5045220;28;20441;-55
2023/08/20 03:15:26;;;;;;;6.30;3.80;;;;;;;;;;5052707;28;20461;-54
2023/08/20 03:17:54;;;;;;;7.63;4.57;;;;;;;;;;5052824;28;20476;-55
2023/08/20 03:20:21;;;;;;;5.17;3.90;;;;;;;;;;5052466;28;20445;-56
2023/08/20 03:22:48;;;;;;;5.87;4.03;;;;;;;;;;5052522;28;20505;-54
2023/08/20 03:25:15;;;;;;;7.00;3.53;;;;;;;;;;5053318;28;20464;-53
2023/08/20 03:27:44;;;;;;;5.13;4.47;;;;;;;;;;5045228;28;20442;-53
2023/08/20 03:30:13;;;;;;;4.47;4.07;;;;;;;;;;5032157;28;20450;-55
2023/08/20 03:32:41;;;;;;;4.10;3.70;;;;;;;;;;5046422;28;20526;-55
2023/08/20 03:35:08;;;;;;;7.53;4.60;;;;;;;;;;5052161;28;20469;-56
2023/08/20 03:37:36;;;;;;;7.60;4.10;;;;;;;;;;5051272;28;20508;-55
2023/08/20 03:40:04;;;;;;;7.67;5.40;;;;;;;;;;5051390;28;20970;-55
2023/08/20 03:42:32;;;;;;;6.50;5.00;;;;;;;;;;5052668;28;20584;-55
2023/08/20 03:44:59;;;;;;;6.67;4.40;;;;;;;;;;5052675;28;20563;-55
2023/08/20 03:47:27;;;;;;;9.13;4.67;;;;;;;;;;5050027;28;20503;-55
2023/08/20 03:49:55;;;;;;;6.73;4.40;;;;;;;;;;5050677;28;20530;-55
2023/08/20 03:52:22;;;;;;;8.03;4.03;;;;;;;;;;5051874;28;20799;-56
2023/08/20 03:54:50;;;;;;;5.63;4.63;;;;;;;;;;5040315;28;20515;-55
2023/08/20 03:57:17;;;;;;;5.50;4.90;;;;;;;;;;5041056;28;20494;-55
2023/08/20 03:59:45;;;;;;;5.63;4.27;;;;;;;;;;5047679;28;20477;-54
2023/08/20 04:02:12;;;;;;;5.33;4.00;;;;;;;;;;5045401;28;20867;-55
2023/08/20 04:04:41;;;;;;;6.00;4.63;;;;;;;;;;5048368;28;20505;-55
2023/08/20 04:07:08;;;;;;;5.73;4.63;;;;;;;;;;5048051;28;20884;-54
2023/08/20 04:09:36;;;;;;;9.47;4.50;;;;;;;;;;5051420;28;20481;-55
2023/08/20 04:12:03;;;;;;;7.13;5.40;;;;;;;;;;5052094;28;20446;-56
2023/08/20 04:14:30;;;;;;;5.20;4.13;;;;;;;;;;5050983;28;20495;-54
2023/08/20 04:16:58;;;;;;;5.83;5.00;;;;;;;;;;5051520;28;20441;-55
2023/08/20 04:19:25;;;;;;;12.23;6.50;;;;;;;;;;5051292;28;20924;-55
2023/08/20 04:21:54;;;;;;;5.50;4.70;;;;;;;;;;5051059;28;20437;-55
2023/08/20 04:24:21;;;;;;;11.67;4.83;;;;;;;;;;5051384;28;20500;-53
2023/08/20 04:26:48;;;;;;;6.87;4.47;;;;;;;;;;5050558;28;20742;-55
2023/08/20 04:29:15;;;;;;;5.50;4.20;;;;;;;;;;5061906;28;20916;-55
2023/08/20 04:31:43;;;;;;;4.97;4.20;;;;;;;;;;5071138;28;20538;-55
2023/08/20 04:34:10;;;;;;;6.70;4.13;;;;;;;;;;5070670;28;20496;-55
2023/08/20 04:36:37;;;;;;;9.17;4.70;;;;;;;;;;5071181;28;20522;-53
2023/08/20 04:39:06;;;;;;;6.20;4.13;;;;;;;;;;5071480;28;20518;-54
2023/08/20 04:41:33;;;;;;;7.33;4.40;;;;;;;;;;5071280;28;20473;-54
2023/08/20 04:44:00;;;;;;;5.10;4.60;;;;;;;;;;5070724;28;20503;-55
2023/08/20 04:46:28;;;;;;;6.67;4.13;;;;;;;;;;5072532;28;20440;-53
2023/08/20 04:48:55;;;;;;;6.23;4.10;;;;;;;;;;5072115;28;20874;-53
2023/08/20 04:51:22;;;;;;;7.63;4.37;;;;;;;;;;5072384;28;20474;-55
2023/08/20 04:53:50;;;;;;;7.17;4.00;;;;;;;;;;5071745;28;20803;-54
2023/08/20 04:56:18;;;;;;;8.90;4.67;;;;;;;;;;5070341;28;20494;-55
2023/08/20 04:58:46;;;;;;;7.70;4.70;;;;;;;;;;5070272;28;20433;-54
2023/08/20 05:01:13;;;;;;;6.80;5.10;;;;;;;;;;5070761;28;20468;-55
2023/08/20 05:03:40;;;;;;;7.73;4.00;;;;;;;;;;5070565;28;20557;-53
2023/08/20 05:06:07;;;;;;;5.60;4.47;;;;;;;;;;5070888;28;20468;-55
2023/08/20 05:08:35;;;;;;;10.63;4.90;;;;;;;;;;5070207;28;20428;-54
2023/08/20 05:11:03;;;;;;;7.77;4.83;;;;;;;;;;5071659;28;20794;-56
2023/08/20 05:13:31;;;;;;;5.87;4.23;;;;;;;;;;5071558;28;20490;-55
2023/08/20 05:15:58;;;;;;;7.20;4.80;;;;;;;;;;5070177;28;20472;-55
2023/08/20 05:18:26;;;;;;;4.43;3.97;;;;;;;;;;5070433;28;20784;-55
2023/08/20 05:20:54;;;;;;;9.07;4.70;;;;;;;;;;5070082;28;20949;-53
2023/08/20 05:23:21;;;;;;;6.23;3.77;;;;;;;;;;5069624;28;20508;-54
2023/08/20 05:25:48;;;;;;;6.10;4.30;;;;;;;;;;5070188;28;20549;-53
2023/08/20 05:28:15;;;;;;;5.93;4.83;;;;;;;;;;5070335;28;20440;-54
2023/08/20 05:30:44;;;;;;;6.60;4.90;;;;;;;;;;5071508;28;20467;-55
2023/08/20 05:33:11;;;;;;;7.20;3.97;;;;;;;;;;5071326;28;20555;-53
2023/08/20 05:35:39;;;;;;;5.70;4.50;;;;;;;;;;5071548;28;20473;-53
2023/08/20 05:38:06;;;;;;;6.13;4.37;;;;;;;;;;5071480;28;21009;-53
2023/08/20 05:40:33;;;;;;;6.03;4.03;;;;;;;;;;5071255;28;20472;-55
2023/08/20 05:43:00;;;;;;;8.53;4.47;;;;;;;;;;5071772;28;20483;-54
2023/08/20 05:45:28;;;;;;;5.63;4.60;;;;;;;;;;5071174;28;20460;-53
2023/08/20 05:47:56;;;;;;;5.80;4.50;;;;;;;;;;5071001;28;20513;-53
2023/08/20 05:50:23;;;;;;;8.20;4.97;;;;;;;;;;5069661;28;20495;-56
2023/08/20 05:52:51;;;;;;;6.20;5.00;;;;;;;;;;5069484;28;20468;-55
2023/08/20 05:55:18;;;;;;;6.37;4.40;;;;;;;;;;5069458;28;20492;-54
2023/08/20 05:57:45;;;;;;;6.87;4.80;;;;;;;;;;5069426;28;20530;-53
2023/08/20 06:00:13;;;;;;;5.77;4.50;;;;;;;;;;5069520;28;20877;-53
2023/08/20 06:02:40;;;;;;;7.10;4.90;;;;;;;;;;5069377;28;20476;-56
2023/08/20 06:05:09;;;;;;;5.67;4.40;;;;;;;;;;5070901;28;20511;-53
2023/08/20 06:07:36;;;;;;;5.20;4.70;;;;;;;;;;5071070;28;20927;-54
2023/08/20 06:10:04;;;;;;;9.10;5.53;;;;;;;;;;5070346;28;20869;-54
2023/08/20 06:12:31;;;;;;;5.17;4.57;;;;;;;;;;5070574;28;20934;-53
2023/08/20 06:14:58;;;;;;;6.73;4.83;;;;;;;;;;5070562;28;20488;-53
2023/08/20 06:17:25;;;;;;;7.67;5.07;;;;;;;;;;5070255;28;20468;-54
2023/08/20 06:19:53;;;;;;;8.20;5.43;;;;;;;;;;5070167;28;20939;-54
2023/08/20 06:22:21;;;;;;;8.40;5.10;;;;;;;;;;5070727;28;20440;-53
2023/08/20 06:24:48;;;;;;;5.20;4.40;;;;;;;;;;5070646;28;21010;-53
2023/08/20 06:27:16;;;;;;;5.80;5.20;;;;;;;;;;5070435;28;20440;-54
2023/08/20 06:29:43;;;;;;;8.43;4.73;;;;;;;;;;5070634;28;20488;-53
2023/08/20 06:32:10;;;;;;;6.73;5.37;;;;;;;;;;5070021;28;20854;-53
2023/08/20 06:34:37;;;;;;;9.90;4.60;;;;;;;;;;5069140;28;20880;-54
2023/08/20 06:37:05;;;;;;;5.67;4.50;;;;;;;;;;5070276;28;21105;-53
2023/08/20 06:39:33;;;;;;;6.40;5.27;;;;;;;;;;5069162;28;20472;-55
2023/08/20 06:42:01;;;;;;;7.37;4.97;;;;;;;;;;5069095;28;20437;-55
2023/08/20 06:44:28;;;;;;;6.80;5.20;;;;;;;;;;5069189;28;20859;-56
2023/08/20 06:46:55;;;;;;;7.40;5.37;;;;;;;;;;5068919;28;20472;-54
2023/08/20 06:49:22;;;;;;;6.50;5.10;;;;;;;;;;5069160;28;20651;-54
2023/08/20 06:51:49;;;;;;;6.00;4.00;;;;;;;;;;5068808;28;20440;-55
2023/08/20 06:54:17;;;;;;;5.33;4.67;;;;;;;;;;5070086;28;20469;-54
2023/08/20 06:56:46;;;;;;;6.90;4.47;;;;;;;;;;5070899;28;20472;-54
2023/08/20 06:59:13;;;;;;;6.50;5.53;;;;;;;;;;5069687;28;20466;-55
2023/08/20 07:01:40;;;;;;;6.97;5.23;;;;;;;;;;5070123;28;20436;-54
2023/08/20 07:04:07;;;;;;;6.83;4.90;;;;;;;;;;5070220;28;20508;-56
2023/08/20 07:06:35;;;;;;;5.53;5.03;;;;;;;;;;5069464;28;20506;-55
2023/08/20 07:09:03;;;;;;;7.80;5.00;;;;;;;;;;5068268;28;20444;-55
2023/08/20 07:11:31;;;;;;;6.23;4.70;;;;;;;;;;5068318;28;20440;-54
2023/08/20 07:13:59;;;;;;;5.83;5.17;;;;;;;;;;5068624;28;20452;-56
2023/08/20 07:16:26;;;;;;;8.33;4.60;;;;;;;;;;5068194;28;20464;-54
2023/08/20 07:18:54;;;;;;;7.43;4.77;;;;;;;;;;5059263;28;21021;-54
2023/08/20 07:21:21;;;;;;;7.87;5.97;;;;;;;;;;5048144;28;20473;-56
2023/08/20 07:23:48;;;;;;;6.53;5.07;;;;;;;;;;5049388;28;20534;-56
2023/08/20 07:26:15;;;;;;;7.10;6.00;;;;;;;;;;5049889;28;20472;-54
2023/08/20 07:28:58;;;;;;;8.47;5.33;;;;;;;;;;5047064;28;20480;-55
2023/08/20 07:31:27;;;;;;;5.60;4.97;;;;;;;;;;5047315;28;20523;-55
2023/08/20 07:33:54;;;;;;;5.57;4.80;;;;;;;;;;5049190;28;20485;-55
2023/08/20 07:36:22;;;;;;;7.80;6.33;;;;;;;;;;5049856;28;20469;-55
2023/08/20 07:38:50;;;;;;;6.07;4.77;;;;;;;;;;5046885;28;20434;-53
2023/08/20 07:41:17;;;;;;;6.30;5.47;;;;;;;;;;5049416;28;20480;-54
2023/08/20 07:43:44;;;;;;;6.97;5.40;;;;;;;;;;5049171;28;20502;-55
2023/08/20 07:46:13;;;;;;;6.10;5.47;;;;;;;;;;5051210;28;20503;-54
2023/08/20 07:48:41;;;;;;;9.30;5.10;;;;;;;;;;5053053;28;20948;-55
2023/08/20 07:51:09;;;;;;;7.23;4.27;;;;;;;;;;5053167;28;20491;-54
2023/08/20 07:53:36;;;;;;;6.60;5.87;;;;;;;;;;5052665;28;20484;-53
2023/08/20 07:56:04;;;;;;;7.17;5.87;;;;;;;;;;5053228;28;20469;-55
2023/08/20 07:58:31;;;;;;;7.73;5.00;;;;;;;;;;5052663;28;20788;-55
2023/08/20 08:00:58;;;;;;;5.83;5.00;;;;;;;;;;5050240;28;20940;-55
2023/08/20 08:03:26;;;;;;;5.87;4.93;;;;;;;;;;5052600;28;20575;-55
2023/08/20 08:05:55;;;;;;;6.60;4.90;;;;;;;;;;5053200;28;20473;-55
2023/08/20 08:08:22;;;;;;;6.40;5.47;;;;;;;;;;5052751;28;20525;-55
2023/08/20 08:10:50;;;;;;;5.77;4.77;;;;;;;;;;5052414;28;20940;-54
2023/08/20 08:13:17;;;;;;;5.50;4.80;;;;;;;;;;5052560;28;20507;-55
2023/08/20 08:15:45;;;;;;;8.37;6.20;;;;;;;;;;5050132;28;20487;-53
2023/08/20 08:18:12;;;;;;;7.97;5.60;;;;;;;;;;5052734;28;20833;-54
2023/08/20 08:20:39;;;;;;;8.30;5.07;;;;;;;;;;5051663;28;20433;-55
2023/08/20 08:23:08;;;;;;;6.73;5.80;;;;;;;;;;5051403;28;20465;-55
2023/08/20 08:25:35;;;;;;;5.80;4.70;;;;;;;;;;5050963;28;20897;-53
2023/08/20 08:28:03;;;;;;;6.77;6.13;;;;;;;;;;5050766;28;20433;-56
2023/08/20 08:30:30;;;;;;;5.80;4.90;;;;;;;;;;5051244;28;20512;-54
2023/08/20 08:32:57;;;;;;;7.47;5.87;;;;;;;;;;5050800;28;20516;-54
2023/08/20 08:35:25;;;;;;;8.73;4.70;;;;;;;;;;5063140;22;20497;-56
2023/08/20 08:37:52;;;;;;;7.30;5.23;;;;;;;;;;5051442;28;20499;-56
2023/08/20 08:40:21;;;;;;;7.57;6.23;;;;;;;;;;5052325;28;20438;-55
2023/08/20 08:42:50;;;;;;;6.10;4.90;;;;;;;;;;5052200;28;20433;-56
2023/08/20 08:45:20;;;;;;;7.97;5.57;;;;;;;;;;5052007;28;20581;-57
2023/08/20 08:47:47;;;;;;;7.90;5.17;;;;;;;;;;5049945;28;20544;-56
2023/08/20 08:50:14;;;;;;;7.37;5.20;;;;;;;;;;5052091;28;20801;-56
2023/08/20 08:52:43;;;;;;;7.00;5.00;;;;;;;;;;5051562;28;20488;-58
2023/08/20 08:55:10;;;;;;;5.40;4.90;;;;;;;;;;5051984;28;20448;-58
2023/08/20 08:57:39;;;;;;;11.13;6.10;;;;;;;;;;5050147;28;20496;-57
2023/08/20 09:00:07;;;;;;;5.23;4.73;;;;;;;;;;5049023;28;20962;-56
2023/08/20 09:02:34;;;;;;;9.90;5.30;;;;;;;;;;5051180;28;20484;-57
2023/08/20 09:05:01;;;;;;;7.40;5.30;;;;;;;;;;5050786;28;20895;-56
2023/08/20 09:07:29;;;;;;;7.40;4.90;;;;;;;;;;5051641;28;21139;-56
2023/08/20 09:10:00;;;;;;;6.03;4.83;;;;;;;;;;5051443;28;20433;-56
2023/08/20 09:12:27;;;;;;;6.80;6.10;;;;;;;;;;5051434;28;20583;-56
2023/08/20 09:15:00;;;;;;;9.50;5.23;;;;;;;;;;5051472;28;20552;-57
2023/08/20 09:17:28;;;;;;;5.50;4.93;;;;;;;;;;5052228;28;20441;-56
2023/08/20 09:19:57;;;;;;;8.53;6.63;;;;;;;;;;5050739;28;20984;-57
2023/08/20 09:22:24;;;;;;;6.57;5.50;;;;;;;;;;5046072;28;20468;-57
2023/08/20 09:24:56;;;;;;;7.23;5.60;;;;;;;;;;5048963;28;20578;-56
2023/08/20 09:27:23;;;;;;;8.47;5.40;;;;;;;;;;5050755;28;20446;-56
2023/08/20 09:29:51;;;;;;;5.30;4.80;;;;;;;;;;5050193;28;20453;-57
2023/08/20 09:32:20;;;;;;;8.50;5.43;;;;;;;;;;5051008;28;20453;-56
2023/08/20 09:34:49;;;;;;;5.93;4.80;;;;;;;;;;5050193;28;20523;-58
2023/08/20 09:37:17;;;;;;;8.50;5.67;;;;;;;;;;5050443;28;20500;-57
2023/08/20 09:39:44;;;;;;;5.57;4.93;;;;;;;;;;5048555;28;20936;-57
2023/08/20 09:42:12;;;;;;;9.70;5.80;;;;;;;;;;5048578;28;20839;-57
2023/08/20 09:44:40;;;;;;;13.90;6.47;;;;;;;;;;5049480;28;20634;-56
2023/08/20 09:47:08;;;;;;;6.83;5.47;;;;;;;;;;5049511;28;20812;-56
2023/08/20 09:49:39;;;;;;;6.77;6.03;;;;;;;;;;5049335;28;20478;-56
2023/08/20 09:52:08;;;;;;;5.97;5.37;;;;;;;;;;5049716;28;20985;-57
2023/08/20 09:54:45;;;;;;;6.03;5.27;;;;;;;;;;5050244;28;21079;-56
2023/08/20 09:57:14;;;;;;;11.03;6.70;;;;;;;;;;5049138;28;20839;-55
2023/08/20 09:59:43;;;;;;;7.20;6.20;;;;;;;;;;5050193;28;20441;-56
2023/08/20 10:02:13;;;;;;;8.17;5.87;;;;;;;;;;5049871;28;20445;-55
2023/08/20 10:04:42;;;;;;;7.30;5.40;;;;;;;;;;5044526;28;20535;-57
2023/08/20 10:07:09;;;;;;;7.50;6.40;;;;;;;;;;5045545;28;20441;-55
2023/08/20 10:09:37;;;;;;;6.73;5.10;;;;;;;;;;5050135;28;20438;-56
2023/08/20 10:12:05;;;;;;;6.00;5.20;;;;;;;;;;5050543;28;20441;-55
2023/08/20 10:14:32;;;;;;;7.33;5.70;;;;;;;;;;5049901;28;20453;-57
2023/08/20 10:17:00;;;;;;;7.23;5.13;;;;;;;;;;5051279;28;20445;-57
2023/08/20 10:19:27;;;;;;;7.37;6.67;;;;;;;;;;5050772;28;20508;-57
2023/08/20 10:21:58;;;;;;;8.13;5.60;;;;;;;;;;5050177;28;20940;-56
2023/08/20 10:24:25;;;;;;;7.33;6.63;;;;;;;;;;5050842;28;20465;-57
2023/08/20 10:27:08;;;;;;;7.80;6.03;;;;;;;;;;5050628;28;20495;-58
2023/08/20 10:29:39;;;;;;;6.70;5.60;;;;;;;;;;5049586;28;20495;-58
2023/08/20 10:32:07;;;;;;;7.70;5.87;;;;;;;;;;5048830;28;20494;-58
2023/08/20 10:34:35;;;;;;;6.40;5.00;;;;;;;;;;5048313;28;20493;-57
2023/08/20 10:37:05;;;;;;;8.63;5.10;;;;;;;;;;5048582;28;20438;-58
2023/08/20 10:39:32;;;;;;;7.20;5.77;;;;;;;;;;5048944;28;20460;-57
2023/08/20 10:42:25;;;;;;;8.63;5.50;;;;;;;;;;5048836;28;20441;-58
2023/08/20 10:44:59;;;;;;;7.47;5.00;;;;;;;;;;5049036;28;20871;-57
2023/08/20 10:47:26;;;;;;;6.07;5.37;;;;;;;;;;5049197;28;20995;-58
2023/08/20 10:49:54;;;;;;;7.50;5.83;;;;;;;;;;5049808;28;20971;-57
2023/08/20 10:52:24;;;;;;;7.97;5.70;;;;;;;;;;5048026;28;20573;-58
2023/08/20 10:54:52;;;;;;;7.70;5.33;;;;;;;;;;5050720;28;20956;-57
2023/08/20 10:57:21;;;;;;;6.77;5.63;;;;;;;;;;5047287;28;20907;-58
2023/08/20 10:59:58;;;;;;;6.50;5.90;;;;;;;;;;5044910;28;20471;-55
2023/08/20 11:02:26;;;;;;;6.40;5.70;;;;;;;;;;5046951;28;20901;-58
2023/08/20 11:04:54;;;;;;;7.03;6.43;;;;;;;;;;5049793;28;20457;-59
2023/08/20 11:07:24;;;;;;;6.50;5.33;;;;;;;;;;5048797;28;20529;-59
2023/08/20 11:09:53;;;;;;;6.20;5.50;;;;;;;;;;5048033;28;20437;-58
2023/08/20 11:12:22;;;;;;;7.23;5.30;;;;;;;;;;5047690;28;20434;-59
2023/08/20 11:14:49;;;;;;;7.97;5.80;;;;;;;;;;5046786;28;20549;-59
2023/08/20 11:17:16;;;;;;;7.33;5.70;;;;;;;;;;5047320;28;20499;-59
2023/08/20 11:19:44;;;;;;;8.90;5.47;;;;;;;;;;5048012;28;20520;-58
2023/08/20 11:22:13;;;;;;;8.23;5.43;;;;;;;;;;5051554;28;20491;-57
2023/08/20 11:24:43;;;;;;;7.30;5.60;;;;;;;;;;5052769;28;20461;-58
2023/08/20 11:27:11;;;;;;;8.63;5.70;;;;;;;;;;5052796;28;20477;-57
2023/08/20 11:29:43;;;;;;;6.43;5.30;;;;;;;;;;5044299;28;20964;-58
2023/08/20 11:32:10;;;;;;;7.23;4.80;;;;;;;;;;5050844;28;20437;-56
2023/08/20 11:34:39;;;;;;;5.83;4.43;;;;;;;;;;5050841;28;20553;-57
2023/08/20 11:37:06;;;;;;;8.57;5.57;;;;;;;;;;5051134;28;20952;-57
2023/08/20 11:39:33;;;;;;;6.80;4.87;;;;;;;;;;5052972;28;20936;-58
2023/08/20 11:42:02;;;;;;;5.60;5.07;;;;;;;;;;5052051;28;20445;-58
2023/08/20 11:44:29;;;;;;;6.57;5.10;;;;;;;;;;5052239;28;20504;-58
2023/08/20 11:46:57;;;;;;;6.40;5.00;;;;;;;;;;5052117;28;20481;-59
2023/08/20 11:49:30;;;;;;;5.60;5.10;;;;;;;;;;5053310;28;21018;-58
2023/08/20 11:51:57;;;;;;;7.63;4.53;;;;;;;;;;5052766;28;21024;-58
2023/08/20 11:54:25;;;;;;;9.63;5.17;;;;;;;;;;5052681;28;20464;-58
2023/08/20 11:56:53;;;;;;;7.60;5.30;;;;;;;;;;5052129;28;20525;-58
2023/08/20 11:59:22;;;;;;;6.27;4.80;;;;;;;;;;5051702;28;20453;-58
2023/08/20 12:01:53;;;;;;;5.20;4.67;;;;;;;;;;5052073;28;20453;-58
2023/08/20 12:04:20;;;;;;;7.00;5.00;;;;;;;;;;5050783;28;20461;-58
2023/08/20 12:07:02;;;;;;;4.83;4.30;;;;;;;;;;5051116;28;20549;-57
2023/08/20 12:09:30;;;;;;;6.00;4.97;;;;;;;;;;5052481;28;20532;-58
2023/08/20 12:11:57;;;;;;;4.60;3.90;;;;;;;;;;5051105;28;20483;-58
2023/08/20 12:14:26;;;;;;;6.20;4.73;;;;;;;;;;5051793;28;20476;-57
2023/08/20 12:16:55;;;;;;;5.47;4.37;;;;;;;;;;5051380;28;20858;-58
2023/08/20 12:19:23;;;;;;;5.77;5.17;;;;;;;;;;5051259;28;20478;-58
2023/08/20 12:21:50;;;;;;;6.50;5.80;;;;;;;;;;5048145;28;20429;-58
2023/08/20 12:24:18;;;;;;;6.63;4.23;;;;;;;;;;5051179;28;20811;-58
2023/08/20 12:26:46;;;;;;;6.17;4.73;;;;;;;;;;5049994;28;20477;-58
2023/08/20 12:29:13;;;;;;;6.67;5.10;;;;;;;;;;5051596;28;20487;-58
2023/08/20 12:31:42;;;;;;;7.27;4.53;;;;;;;;;;5052207;28;20442;-58
2023/08/20 12:34:10;;;;;;;6.67;5.20;;;;;;;;;;5052341;28;20495;-58
2023/08/20 12:36:37;;;;;;;5.17;4.67;;;;;;;;;;5052376;28;20500;-58
2023/08/20 12:39:05;;;;;;;5.70;5.07;;;;;;;;;;5051014;28;20453;-58
2023/08/20 12:41:32;;;;;;;5.47;4.70;;;;;;;;;;5051176;28;20447;-58
2023/08/20 12:44:00;;;;;;;6.50;4.97;;;;;;;;;;5050776;28;20907;-58
2023/08/20 12:46:27;;;;;;;8.50;4.60;;;;;;;;;;5050675;28;20999;-58
2023/08/20 12:48:55;;;;;;;7.77;4.87;;;;;;;;;;5050837;28;20445;-58
2023/08/20 12:51:23;;;;;;;6.43;5.13;;;;;;;;;;5050662;28;20528;-58
2023/08/20 12:53:50;;;;;;;6.63;5.20;;;;;;;;;;5050827;28;20437;-58
2023/08/20 12:56:17;;;;;;;6.40;4.60;;;;;;;;;;5050700;28;20442;-58
2023/08/20 12:58:45;;;;;;;6.13;4.27;;;;;;;;;;5050624;28;20847;-58
2023/08/20 13:01:12;;;;;;;7.40;5.10;;;;;;;;;;5051172;28;20852;-58
2023/08/20 13:03:39;;;;;;;5.50;4.70;;;;;;;;;;5050461;28;21300;-58
2023/08/20 13:06:09;;;;;;;6.90;4.70;;;;;;;;;;5050593;28;20513;-59
2023/08/20 13:08:36;;;;;;;7.63;4.50;;;;;;;;;;5050770;28;20877;-58
2023/08/20 13:11:05;;;;;;;7.17;4.40;;;;;;;;;;5050392;28;20481;-58
2023/08/20 13:13:34;;;;;;;8.00;5.03;;;;;;;;;;5050400;28;20437;-57
2023/08/20 13:16:02;;;;;;;5.43;3.77;;;;;;;;;;5049959;28;20528;-58
2023/08/20 13:18:30;;;;;;;4.93;3.73;;;;;;;;;;5047606;28;20469;-57
2023/08/20 13:20:57;;;;;;;7.10;4.07;;;;;;;;;;5031622;28;20496;-58
2023/08/20 13:23:26;;;;;;;6.17;4.00;;;;;;;;;;5049909;28;20438;-58
2023/08/20 13:25:53;;;;;;;5.83;4.67;;;;;;;;;;5051990;28;20570;-59
2023/08/20 13:28:21;;;;;;;6.53;3.67;;;;;;;;;;5051140;28;20475;-57
2023/08/20 13:30:48;;;;;;;4.47;3.67;;;;;;;;;;5050105;28;20517;-57
2023/08/20 13:33:16;;;;;;;5.40;4.07;;;;;;;;;;5050635;28;20456;-58
2023/08/20 13:35:43;;;;;;;4.90;3.80;;;;;;;;;;5050288;28;20473;-58
2023/08/20 13:38:10;;;;;;;4.13;3.60;;;;;;;;;;5039941;28;20504;-58
2023/08/20 13:40:39;;;;;;;4.50;3.40;;;;;;;;;;5048133;28;20545;-58
2023/08/20 13:43:09;;;;;;;6.47;3.60;;;;;;;;;;5049054;28;20728;-58
2023/08/20 13:45:36;;;;;;;7.10;4.90;;;;;;;;;;5050516;28;20477;-58
2023/08/20 13:48:03;;;;;;;7.10;4.70;;;;;;;;;;5050478;28;20469;-58
2023/08/20 13:50:31;;;;;;;6.63;3.53;;;;;;;;;;5051105;28;20445;-58
2023/08/20 13:52:58;;;;;;;5.17;4.23;;;;;;;;;;5047098;28;20528;-58
2023/08/20 13:55:25;;;;;;;5.23;3.73;;;;;;;;;;5047880;28;20461;-58
2023/08/20 13:57:54;;;;;;;4.93;4.43;;;;;;;;;;5049041;28;20483;-57
2023/08/20 14:00:21;;;;;;;5.13;3.80;;;;;;;;;;5048157;28;20477;-57
2023/08/20 14:02:48;;;;;;;5.37;3.47;;;;;;;;;;5044592;28;20460;-58
2023/08/20 14:05:16;;;;;;;4.90;3.60;;;;;;;;;;5048184;28;20536;-59
2023/08/20 14:07:43;;;;;;;6.60;4.10;;;;;;;;;;5044701;28;20547;-58
2023/08/20 14:10:11;;;;;;;3.90;3.10;;;;;;;;;;5047904;28;20492;-58
2023/08/20 14:12:38;;;;;;;5.93;3.47;;;;;;;;;;5048065;28;20506;-58
2023/08/20 14:15:07;;;;;;;9.70;3.33;;;;;;;;;;5049338;28;20530;-58
2023/08/20 14:17:35;;;;;;;4.80;3.43;;;;;;;;;;5048842;28;20437;-58
2023/08/20 14:20:02;;;;;;;4.87;3.20;;;;;;;;;;5049377;28;20437;-58
2023/08/20 14:22:29;;;;;;;3.37;2.77;;;;;;;;;;5047282;28;20442;-58
2023/08/20 14:24:56;;;;;;;4.67;3.10;;;;;;;;;;5045840;28;20485;-57
2023/08/20 14:27:24;;;;;;;4.43;2.93;;;;;;;;;;5047899;28;20535;-58
2023/08/20 14:29:51;;;;;;;4.40;2.73;;;;;;;;;;5047452;28;20517;-58
2023/08/20 14:32:20;;;;;;;3.70;2.80;;;;;;;;;;5049224;28;20488;-58
2023/08/20 14:34:48;;;;;;;4.17;2.63;;;;;;;;;;5069069;22;20489;-82
2023/08/20 14:37:15;;;;;;;4.63;3.33;;;;;;;;;;5040275;28;20446;-83
2023/08/20 14:39:42;;;;;;;5.50;3.10;;;;;;;;;;5038609;28;20497;-83
2023/08/20 14:42:09;;;;;;;3.10;2.70;;;;;;;;;;5035875;28;20488;-83
2023/08/20 14:44:37;;;;;;;3.73;2.83;;;;;;;;;;5032405;28;20434;-83
2023/08/20 14:47:04;;;;;;;3.60;2.93;;;;;;;;;;5041520;28;20473;-83